Time;durP1;ratioP1;P1;durP2;ratioP2;P2;SDS_P1;SDS_P2;PMS_P1;PMS_P2;Temp;Humidity;BMP_temperature;BMP_pressure;BME280_temperature;BME280_humidity;BME280_pressure;Samples;Min_cycle;Max_cycle;Signal;HPM_P1;HPM_P2
2023/04/26 00:02:19;;;;;;;5.10;1.90;;;4.50;99.90;;;;;;5009925;28;20513;-63
2023/04/26 00:04:46;;;;;;;3.70;1.47;;;4.60;99.90;;;;;;5027900;28;20280;-63
2023/04/26 00:07:14;;;;;;;4.33;1.10;;;4.50;99.90;;;;;;4999774;28;20950;-63
2023/04/26 00:09:43;;;;;;;4.90;1.77;;;4.60;99.90;;;;;;5028351;28;20312;-63
2023/04/26 00:12:11;;;;;;;6.27;1.50;;;4.60;99.90;;;;;;5024229;28;20197;-63
2023/04/26 00:14:39;;;;;;;4.43;1.80;;;4.60;99.90;;;;;;5007758;28;20259;-63
2023/04/26 00:17:06;;;;;;;4.03;1.43;;;4.60;99.90;;;;;;5000065;28;20240;-63
2023/04/26 00:19:32;;;;;;;5.70;1.83;;;4.60;99.90;;;;;;5019479;28;20203;-63
2023/04/26 00:21:59;;;;;;;6.03;1.83;;;4.60;99.90;;;;;;4997340;28;20205;-64
2023/04/26 00:24:26;;;;;;;5.23;1.83;;;4.60;99.90;;;;;;5017879;28;20631;-63
2023/04/26 00:26:54;;;;;;;4.57;2.17;;;4.60;99.90;;;;;;5017118;28;20233;-63
2023/04/26 00:29:22;;;;;;;3.67;1.87;;;4.50;99.90;;;;;;5003505;28;20357;-63
2023/04/26 00:31:49;;;;;;;7.40;2.17;;;4.60;99.90;;;;;;4998987;28;20203;-63
2023/04/26 00:34:16;;;;;;;12.27;2.50;;;4.50;99.90;;;;;;5024594;28;20197;-63
2023/04/26 00:36:43;;;;;;;6.87;1.87;;;4.50;99.90;;;;;;5025761;28;20291;-63
2023/04/26 00:39:10;;;;;;;9.30;2.57;;;4.50;99.90;;;;;;4996494;28;20763;-63
2023/04/26 00:41:36;;;;;;;6.20;2.10;;;4.50;99.90;;;;;;5028992;28;20208;-63
2023/04/26 00:44:03;;;;;;;9.57;2.70;;;4.50;99.90;;;;;;5013817;28;20208;-63
2023/04/26 00:46:32;;;;;;;8.60;2.93;;;4.50;99.90;;;;;;5010467;28;20209;-63
2023/04/26 00:48:59;;;;;;;5.03;2.00;;;4.40;99.90;;;;;;5000802;28;20240;-63
2023/04/26 00:51:26;;;;;;;4.93;2.17;;;4.40;99.90;;;;;;5027932;28;20217;-63
2023/04/26 00:53:53;;;;;;;4.27;1.80;;;4.40;99.90;;;;;;4996778;28;20702;-63
2023/04/26 00:56:23;;;;;;;4.50;2.43;;;4.50;99.90;;;;;;5024560;28;20626;-63
2023/04/26 00:58:49;;;;;;;6.03;2.37;;;4.50;99.90;;;;;;5027671;28;20205;-63
2023/04/26 01:01:16;;;;;;;9.37;2.50;;;4.50;99.90;;;;;;4996650;28;20363;-63
2023/04/26 01:03:45;;;;;;;6.43;2.10;;;4.50;99.90;;;;;;5004516;28;20718;-63
2023/04/26 01:06:12;;;;;;;4.93;2.73;;;4.50;99.90;;;;;;5024738;28;20201;-63
2023/04/26 01:08:39;;;;;;;4.03;2.20;;;4.50;99.90;;;;;;5001271;28;21412;-63
2023/04/26 01:11:06;;;;;;;7.40;2.30;;;4.50;99.90;;;;;;5021159;28;20205;-63
2023/04/26 01:13:34;;;;;;;10.97;2.70;;;4.50;99.90;;;;;;5025395;28;20852;-63
2023/04/26 01:16:02;;;;;;;3.07;1.77;;;4.50;99.90;;;;;;5017009;28;20213;-63
2023/04/26 01:18:29;;;;;;;6.10;2.30;;;4.60;99.90;;;;;;4983401;28;22430;-63
2023/04/26 01:20:57;;;;;;;7.27;2.13;;;4.50;99.90;;;;;;5022400;28;20194;-63
2023/04/26 01:23:26;;;;;;;10.87;2.83;;;4.50;99.90;;;;;;5017278;28;20434;-63
2023/04/26 01:25:55;;;;;;;8.33;1.90;;;4.50;99.90;;;;;;4997074;28;20217;-64
2023/04/26 01:28:22;;;;;;;7.23;2.43;;;4.40;99.90;;;;;;5022069;28;20240;-63
2023/04/26 01:30:49;;;;;;;3.90;2.17;;;4.50;99.90;;;;;;5019646;28;20603;-63
2023/04/26 01:33:16;;;;;;;8.47;2.20;;;4.40;99.90;;;;;;4998226;28;20201;-64
2023/04/26 01:35:42;;;;;;;4.70;2.20;;;4.40;99.90;;;;;;5017994;28;20405;-63
2023/04/26 01:38:09;;;;;;;8.27;2.43;;;4.40;99.90;;;;;;5026450;28;20218;-63
2023/04/26 01:40:38;;;;;;;6.77;2.53;;;4.30;99.90;;;;;;4996567;28;20956;-63
2023/04/26 01:43:05;;;;;;;5.87;2.27;;;4.30;99.90;;;;;;5025688;28;20792;-63
2023/04/26 01:45:32;;;;;;;5.20;1.87;;;4.30;99.90;;;;;;5014838;28;22603;-63
2023/04/26 01:47:58;;;;;;;7.23;2.60;;;4.30;99.90;;;;;;5011777;28;20229;-63
2023/04/26 01:50:25;;;;;;;9.17;2.43;;;4.20;99.90;;;;;;4999775;28;20204;-63
2023/04/26 01:52:52;;;;;;;8.27;2.03;;;4.20;99.90;;;;;;5026728;28;20726;-63
2023/04/26 01:55:19;;;;;;;4.73;2.03;;;4.30;99.90;;;;;;5025524;28;20642;-63
2023/04/26 01:57:47;;;;;;;6.63;2.20;;;4.30;99.90;;;;;;5000591;28;20713;-63
2023/04/26 02:00:14;;;;;;;10.53;2.43;;;4.30;99.90;;;;;;5017173;28;20205;-63
2023/04/26 02:02:41;;;;;;;5.13;2.40;;;4.20;99.90;;;;;;5006752;28;20472;-63
2023/04/26 02:05:11;;;;;;;7.60;2.93;;;4.20;99.90;;;;;;5021629;28;20208;-64
2023/04/26 02:07:38;;;;;;;9.07;2.43;;;4.20;99.90;;;;;;5013664;28;20208;-63
2023/04/26 02:10:06;;;;;;;5.77;2.30;;;4.20;99.90;;;;;;5019413;28;20209;-63
2023/04/26 02:12:33;;;;;;;5.90;2.20;;;4.40;99.90;;;;;;4996326;28;20435;-63
2023/04/26 02:15:01;;;;;;;8.80;2.73;;;4.30;99.90;;;;;;5023361;28;20208;-63
2023/04/26 02:17:28;;;;;;;5.10;2.97;;;4.20;99.90;;;;;;5010073;28;20447;-63
2023/04/26 02:19:55;;;;;;;10.07;2.70;;;4.20;99.90;;;;;;5010532;28;20250;-63
2023/04/26 02:22:24;;;;;;;9.07;2.40;;;4.20;99.90;;;;;;4997491;28;20212;-64
2023/04/26 02:24:51;;;;;;;8.33;2.50;;;4.20;99.90;;;;;;5023778;28;20199;-63
2023/04/26 02:27:18;;;;;;;8.93;2.47;;;4.40;99.90;;;;;;5004356;28;20226;-64
2023/04/26 02:29:45;;;;;;;7.43;3.10;;;4.30;99.90;;;;;;5020671;28;20229;-63
2023/04/26 02:32:13;;;;;;;9.90;2.57;;;4.30;99.90;;;;;;5010014;28;20487;-63
2023/04/26 02:34:40;;;;;;;10.90;2.80;;;4.20;99.90;;;;;;5007082;28;20412;-63
2023/04/26 02:37:07;;;;;;;6.97;2.63;;;4.20;99.90;;;;;;5020184;28;20218;-63
2023/04/26 02:39:34;;;;;;;9.87;2.53;;;4.30;99.90;;;;;;5002405;28;20201;-63
2023/04/26 02:42:01;;;;;;;8.93;2.83;;;4.30;99.90;;;;;;5023462;28;20568;-63
2023/04/26 02:44:29;;;;;;;4.33;2.00;;;4.20;99.90;;;;;;4995270;28;20440;-63
2023/04/26 02:46:57;;;;;;;4.30;2.00;;;4.30;99.90;;;;;;5008313;28;20200;-63
2023/04/26 02:49:25;;;;;;;5.83;2.30;;;4.20;99.90;;;;;;5008138;28;20225;-63
2023/04/26 02:51:52;;;;;;;8.53;2.70;;;4.30;99.90;;;;;;5021995;28;20208;-63
2023/04/26 02:54:18;;;;;;;7.10;2.93;;;4.30;99.90;;;;;;5000341;28;20206;-63
2023/04/26 02:56:45;;;;;;;7.70;2.50;;;4.30;99.90;;;;;;5022161;28;20657;-63
2023/04/26 02:59:12;;;;;;;5.87;2.73;;;4.20;99.90;;;;;;4995299;28;20218;-63
2023/04/26 03:01:39;;;;;;;9.07;2.50;;;4.20;99.90;;;;;;5021885;28;20201;-64
2023/04/26 03:04:05;;;;;;;5.63;2.13;;;4.10;99.90;;;;;;5013056;28;20205;-63
2023/04/26 03:06:34;;;;;;;8.43;3.07;;;4.10;99.90;;;;;;5007054;28;20390;-63
2023/04/26 03:09:00;;;;;;;5.37;2.60;;;4.10;99.90;;;;;;5023038;28;20217;-63
2023/04/26 03:11:27;;;;;;;5.70;2.70;;;4.10;99.90;;;;;;4998536;28;20625;-63
2023/04/26 03:13:54;;;;;;;7.73;2.87;;;4.10;99.90;;;;;;4992908;28;21519;-63
2023/04/26 03:16:23;;;;;;;8.00;2.87;;;4.00;99.90;;;;;;5022615;28;20607;-63
2023/04/26 03:18:50;;;;;;;8.13;2.40;;;4.00;99.90;;;;;;5012400;28;20709;-63
2023/04/26 03:21:17;;;;;;;8.30;2.17;;;4.10;99.90;;;;;;5002947;28;20283;-63
2023/04/26 03:23:45;;;;;;;12.87;2.57;;;4.00;99.90;;;;;;5016564;28;20536;-63
2023/04/26 03:26:12;;;;;;;9.50;2.83;;;4.10;99.90;;;;;;4998977;28;20212;-63
2023/04/26 03:28:38;;;;;;;5.17;2.53;;;4.00;99.90;;;;;;5020942;28;20236;-63
2023/04/26 03:31:06;;;;;;;9.37;2.60;;;4.00;99.90;;;;;;4987795;28;21433;-63
2023/04/26 03:33:33;;;;;;;6.63;2.27;;;4.00;99.90;;;;;;5025182;28;20204;-63
2023/04/26 03:35:59;;;;;;;5.33;2.50;;;4.00;99.90;;;;;;4998076;28;21039;-63
2023/04/26 03:38:26;;;;;;;11.30;2.73;;;4.00;99.90;;;;;;5018614;28;20209;-63
2023/04/26 03:40:54;;;;;;;10.07;2.60;;;4.00;99.90;;;;;;4997393;28;20312;-63
2023/04/26 03:43:21;;;;;;;4.47;2.30;;;3.90;99.90;;;;;;5024333;28;20670;-63
2023/04/26 03:45:49;;;;;;;3.17;1.93;;;3.90;99.90;;;;;;4982101;28;20550;-63
2023/04/26 03:48:16;;;;;;;4.40;2.73;;;3.90;99.90;;;;;;5019562;28;20832;-63
2023/04/26 03:50:43;;;;;;;9.03;2.97;;;3.80;99.90;;;;;;4997675;28;20268;-63
2023/04/26 03:53:11;;;;;;;6.10;2.57;;;3.80;99.90;;;;;;5015357;28;20193;-63
2023/04/26 03:55:38;;;;;;;9.93;2.60;;;3.80;99.90;;;;;;4987213;28;21878;-63
2023/04/26 03:58:06;;;;;;;6.33;2.70;;;3.80;99.90;;;;;;5004746;28;20210;-64
2023/04/26 04:00:33;;;;;;;4.33;2.20;;;3.80;99.90;;;;;;5009093;28;20300;-63
2023/04/26 04:03:00;;;;;;;6.27;2.60;;;3.70;99.90;;;;;;4993670;28;20212;-63
2023/04/26 04:05:27;;;;;;;5.67;2.90;;;3.70;99.90;;;;;;5016631;28;20205;-63
2023/04/26 04:07:55;;;;;;;4.13;2.37;;;3.80;99.90;;;;;;5004927;28;20805;-63
2023/04/26 04:10:22;;;;;;;7.47;2.77;;;3.70;99.90;;;;;;5025385;28;20506;-63
2023/04/26 04:12:49;;;;;;;8.57;2.97;;;3.80;99.90;;;;;;4988779;28;20275;-63
2023/04/26 04:15:18;;;;;;;5.20;2.80;;;3.80;99.90;;;;;;5021119;28;20204;-63
2023/04/26 04:17:45;;;;;;;6.07;2.47;;;3.80;99.90;;;;;;4986403;28;20225;-64
2023/04/26 04:20:13;;;;;;;5.87;2.50;;;3.80;99.90;;;;;;5012530;28;20450;-63
2023/04/26 04:22:40;;;;;;;9.33;2.80;;;3.80;99.90;;;;;;5011851;28;20211;-63
2023/04/26 04:25:08;;;;;;;5.87;2.83;;;3.80;99.90;;;;;;5021921;28;20205;-63
2023/04/26 04:27:35;;;;;;;9.30;3.13;;;3.80;99.90;;;;;;5006245;28;20399;-63
2023/04/26 04:30:03;;;;;;;5.30;2.60;;;3.90;99.90;;;;;;5023922;28;20236;-63
2023/04/26 04:32:33;;;;;;;4.40;2.70;;;3.90;99.90;;;;;;5011886;28;20220;-63
2023/04/26 04:35:00;;;;;;;9.73;2.57;;;3.90;99.90;;;;;;4992446;28;20216;-64
2023/04/26 04:37:27;;;;;;;6.03;2.57;;;3.80;99.90;;;;;;5023256;28;20208;-63
2023/04/26 04:39:54;;;;;;;12.43;2.93;;;3.90;99.90;;;;;;5001829;28;20197;-63
2023/04/26 04:42:21;;;;;;;3.93;2.63;;;3.90;99.90;;;;;;4992097;28;20244;-64
2023/04/26 04:44:48;;;;;;;8.17;2.57;;;3.80;99.90;;;;;;5022035;28;20217;-64
2023/04/26 04:47:16;;;;;;;3.90;2.03;;;3.80;99.90;;;;;;5005344;28;21009;-63
2023/04/26 04:49:45;;;;;;;6.23;2.50;;;3.80;99.90;;;;;;4985661;28;20236;-64
2023/04/26 04:52:11;;;;;;;15.83;2.70;;;3.90;99.90;;;;;;5004898;28;20894;-63
2023/04/26 04:54:38;;;;;;;3.53;2.00;;;3.90;99.90;;;;;;5006046;28;20206;-64
2023/04/26 04:57:05;;;;;;;5.17;2.40;;;3.80;99.90;;;;;;4986262;28;20526;-63
2023/04/26 04:59:32;;;;;;;4.40;2.37;;;3.80;99.90;;;;;;4999604;28;20223;-63
2023/04/26 05:01:59;;;;;;;3.07;2.07;;;3.90;99.90;;;;;;4981484;28;20217;-63
2023/04/26 05:04:26;;;;;;;4.73;2.37;;;3.80;99.90;;;;;;4991510;28;20218;-63
2023/04/26 05:06:54;;;;;;;6.53;2.30;;;3.80;99.90;;;;;;4985304;28;20702;-63
2023/04/26 05:09:21;;;;;;;6.33;2.53;;;3.80;99.90;;;;;;5000264;28;20225;-63
2023/04/26 05:11:48;;;;;;;3.73;2.43;;;3.90;99.90;;;;;;5003294;28;20443;-63
2023/04/26 05:14:14;;;;;;;8.93;2.63;;;3.90;99.90;;;;;;4995684;28;20233;-64
2023/04/26 05:16:41;;;;;;;6.90;2.20;;;3.90;99.90;;;;;;4980643;28;20223;-64
2023/04/26 05:19:08;;;;;;;10.53;2.53;;;3.90;99.90;;;;;;5001051;28;20711;-64
2023/04/26 05:21:35;;;;;;;2.97;2.20;;;4.00;99.90;;;;;;4986185;28;20216;-63
2023/04/26 05:24:04;;;;;;;6.30;2.40;;;3.90;99.90;;;;;;5014513;28;20201;-64
2023/04/26 05:26:31;;;;;;;7.00;2.23;;;4.00;99.90;;;;;;5011370;28;20221;-63
2023/04/26 05:28:57;;;;;;;7.60;2.37;;;4.00;99.90;;;;;;5000581;28;20457;-63
2023/04/26 05:31:24;;;;;;;6.53;2.27;;;4.40;99.90;;;;;;5025552;28;20205;-63
2023/04/26 05:33:51;;;;;;;2.37;2.03;;;4.20;99.90;;;;;;5010568;28;20613;-63
2023/04/26 05:36:18;;;;;;;4.77;2.43;;;4.20;99.90;;;;;;4998146;28;21620;-63
2023/04/26 05:38:45;;;;;;;6.20;2.07;;;4.20;99.90;;;;;;4998654;28;21345;-63
2023/04/26 05:41:13;;;;;;;2.57;1.90;;;4.30;99.90;;;;;;5012897;28;20297;-63
2023/04/26 05:43:40;;;;;;;3.50;2.10;;;4.40;99.90;;;;;;4995373;28;20225;-64
2023/04/26 05:46:07;;;;;;;7.00;2.43;;;4.40;99.90;;;;;;5026192;28;20483;-63
2023/04/26 05:48:33;;;;;;;12.47;4.87;;;4.50;99.90;;;;;;5015496;28;20197;-63
2023/04/26 05:51:00;;;;;;;6.17;2.67;;;4.60;99.90;;;;;;5018026;28;20225;-63
2023/04/26 05:53:27;;;;;;;8.67;2.63;;;4.70;99.90;;;;;;4981372;28;20851;-63
2023/04/26 05:55:54;;;;;;;4.00;2.43;;;4.70;99.90;;;;;;4993984;28;20347;-63
2023/04/26 05:58:22;;;;;;;5.67;2.37;;;4.80;99.90;;;;;;5021223;28;20694;-63
2023/04/26 06:00:49;;;;;;;7.80;2.23;;;4.80;99.90;;;;;;4993796;28;20558;-63
2023/04/26 06:03:15;;;;;;;8.30;2.40;;;4.80;99.90;;;;;;5025311;28;20209;-63
2023/04/26 06:05:42;;;;;;;4.47;2.17;;;4.90;99.90;;;;;;5005216;28;20369;-63
2023/04/26 06:08:10;;;;;;;4.37;2.50;;;4.90;99.90;;;;;;5001952;28;20259;-63
2023/04/26 06:10:37;;;;;;;5.63;2.43;;;5.00;99.90;;;;;;4991038;28;20233;-64
2023/04/26 06:13:04;;;;;;;5.83;2.37;;;5.00;99.90;;;;;;5005541;28;22107;-63
2023/04/26 06:15:32;;;;;;;5.53;2.47;;;5.10;99.90;;;;;;5008526;28;20194;-64
2023/04/26 06:17:59;;;;;;;6.80;2.63;;;5.20;99.90;;;;;;5009160;28;20651;-63
2023/04/26 06:20:26;;;;;;;7.97;2.50;;;5.30;99.90;;;;;;5010451;28;20225;-63
2023/04/26 06:22:53;;;;;;;2.80;2.17;;;5.30;99.90;;;;;;4999224;28;21331;-63
2023/04/26 06:25:20;;;;;;;6.37;2.40;;;5.50;99.90;;;;;;5005193;28;20306;-63
2023/04/26 06:27:47;;;;;;;6.97;2.73;;;5.50;99.90;;;;;;5005898;28;20230;-63
2023/04/26 06:30:14;;;;;;;7.60;2.77;;;5.50;99.90;;;;;;5022326;28;20632;-64
2023/04/26 06:32:43;;;;;;;8.20;2.80;;;5.50;99.90;;;;;;4994319;28;20599;-63
2023/04/26 06:35:10;;;;;;;5.80;2.60;;;5.50;99.90;;;;;;5006384;28;20209;-64
2023/04/26 06:37:38;;;;;;;6.97;2.73;;;5.40;99.90;;;;;;4994155;28;20259;-64
2023/04/26 06:40:06;;;;;;;5.93;2.80;;;5.30;99.90;;;;;;5022122;28;20209;-64
2023/04/26 06:42:32;;;;;;;7.30;2.10;;;5.40;99.90;;;;;;5005251;28;20229;-63
2023/04/26 06:44:59;;;;;;;5.30;2.60;;;5.50;99.90;;;;;;5016496;28;20206;-63
2023/04/26 06:47:26;;;;;;;5.93;2.47;;;5.60;99.90;;;;;;5014129;28;20197;-64
2023/04/26 06:49:55;;;;;;;3.37;2.00;;;5.60;99.90;;;;;;5011376;28;20361;-63
2023/04/26 06:52:22;;;;;;;7.83;2.47;;;5.60;99.90;;;;;;5016307;28;20326;-63
2023/04/26 06:54:49;;;;;;;9.27;2.50;;;5.70;99.90;;;;;;4993873;28;20424;-63
2023/04/26 06:57:15;;;;;;;7.90;2.60;;;5.90;99.90;;;;;;5014401;28;20459;-63
2023/04/26 06:59:42;;;;;;;4.63;2.50;;;6.10;99.90;;;;;;5006922;28;20424;-63
2023/04/26 07:02:09;;;;;;;5.03;1.97;;;6.20;99.90;;;;;;5020258;28;20201;-63
2023/04/26 07:04:36;;;;;;;5.80;2.70;;;6.20;99.90;;;;;;5002346;28;20197;-63
2023/04/26 07:07:04;;;;;;;7.17;2.50;;;6.20;99.90;;;;;;5021718;28;20279;-63
2023/04/26 07:09:31;;;;;;;7.60;2.20;;;6.20;99.90;;;;;;4999058;28;20233;-64
2023/04/26 07:11:57;;;;;;;7.07;2.50;;;6.20;99.90;;;;;;5006050;28;20201;-63
2023/04/26 07:14:25;;;;;;;7.57;2.20;;;6.00;99.90;;;;;;5013784;28;20213;-63
2023/04/26 07:16:52;;;;;;;6.10;2.20;;;5.90;99.90;;;;;;5024111;28;20194;-63
2023/04/26 07:19:18;;;;;;;4.50;2.10;;;6.00;99.90;;;;;;5000199;28;20348;-63
2023/04/26 07:21:45;;;;;;;10.97;2.30;;;5.90;99.90;;;;;;5023409;28;20259;-63
2023/04/26 07:24:13;;;;;;;6.63;2.20;;;6.00;99.90;;;;;;5022481;28;20412;-63
2023/04/26 07:26:41;;;;;;;5.37;2.17;;;6.00;99.90;;;;;;5000589;28;20899;-63
2023/04/26 07:29:07;;;;;;;9.17;2.50;;;6.10;99.90;;;;;;5010343;28;20571;-63
2023/04/26 07:31:34;;;;;;;8.80;2.67;;;6.10;99.90;;;;;;5010785;28;20206;-63
2023/04/26 07:34:01;;;;;;;5.83;2.60;;;6.10;99.90;;;;;;4999954;28;20209;-63
2023/04/26 07:36:28;;;;;;;5.77;2.63;;;6.20;99.90;;;;;;5030388;28;20195;-63
2023/04/26 07:38:55;;;;;;;3.50;1.87;;;6.20;99.90;;;;;;5026424;28;20225;-63
2023/04/26 07:41:23;;;;;;;6.00;2.33;;;6.20;99.90;;;;;;4997424;28;20231;-63
2023/04/26 07:43:49;;;;;;;6.50;2.50;;;6.30;99.90;;;;;;5005570;28;20210;-63
2023/04/26 07:46:16;;;;;;;8.93;2.77;;;6.30;99.90;;;;;;5007128;28;20409;-63
2023/04/26 07:48:43;;;;;;;3.30;2.33;;;6.30;99.90;;;;;;5001529;28;20201;-63
2023/04/26 07:51:11;;;;;;;6.80;2.50;;;6.20;99.90;;;;;;5024288;28;20789;-63
2023/04/26 07:53:38;;;;;;;8.63;2.50;;;6.20;99.90;;;;;;5025307;28;20679;-63
2023/04/26 07:56:07;;;;;;;3.73;2.20;;;6.30;99.90;;;;;;4995813;28;22045;-64
2023/04/26 07:58:36;;;;;;;8.53;2.30;;;6.40;99.90;;;;;;5012107;28;20200;-63
2023/04/26 08:01:03;;;;;;;5.60;2.43;;;6.70;99.90;;;;;;5007420;28;20331;-63
2023/04/26 08:03:30;;;;;;;6.30;2.57;;;6.80;99.90;;;;;;5030268;28;20208;-63
2023/04/26 08:05:57;;;;;;;8.73;2.80;;;7.10;99.90;;;;;;5002431;28;20202;-64
2023/04/26 08:08:25;;;;;;;3.77;2.43;;;7.20;99.90;;;;;;5027190;28;20205;-63
2023/04/26 08:10:52;;;;;;;11.43;2.87;;;7.30;99.90;;;;;;5010832;28;20268;-64
2023/04/26 08:13:19;;;;;;;2.77;2.10;;;7.20;99.90;;;;;;5019004;28;20914;-63
2023/04/26 08:15:48;;;;;;;6.83;2.63;;;7.20;99.90;;;;;;5015038;28;20229;-63
2023/04/26 08:18:15;;;;;;;8.70;3.03;;;7.20;99.90;;;;;;5013142;28;21265;-64
2023/04/26 08:20:41;;;;;;;3.50;2.40;;;7.30;99.90;;;;;;5005409;28;20200;-63
2023/04/26 08:23:08;;;;;;;6.63;2.43;;;7.20;99.90;;;;;;5025202;28;20783;-63
2023/04/26 08:25:35;;;;;;;3.90;2.37;;;7.10;99.90;;;;;;5027478;28;20197;-63
2023/04/26 08:28:03;;;;;;;4.47;1.93;;;7.10;99.90;;;;;;5001693;28;20537;-63
2023/04/26 08:30:30;;;;;;;8.03;2.03;;;7.00;99.90;;;;;;5014427;28;20801;-63
2023/04/26 08:32:58;;;;;;;6.13;2.17;;;7.00;99.90;;;;;;5012857;28;20206;-64
2023/04/26 08:35:25;;;;;;;4.97;2.00;;;7.00;99.90;;;;;;4997728;28;20580;-64
2023/04/26 08:37:51;;;;;;;6.87;2.00;;;7.00;99.90;;;;;;5027387;28;20267;-63
2023/04/26 08:40:23;;;;;;;7.83;2.20;;;7.20;99.90;;;;;;5026836;28;20201;-64
2023/04/26 08:42:52;;;;;;;3.97;2.10;;;7.10;99.90;;;;;;5001886;28;20782;-63
2023/04/26 08:45:20;;;;;;;3.40;2.10;;;7.10;99.90;;;;;;5014448;28;20705;-63
2023/04/26 08:47:49;;;;;;;5.20;2.20;;;7.10;99.90;;;;;;5019564;28;20521;-63
2023/04/26 08:50:19;;;;;;;10.37;2.40;;;6.90;99.90;;;;;;4984524;28;20327;-63
2023/04/26 08:52:48;;;;;;;5.47;2.00;;;6.60;99.90;;;;;;5022606;28;20221;-63
2023/04/26 08:55:17;;;;;;;5.23;2.07;;;6.40;99.90;;;;;;5019972;28;20928;-63
2023/04/26 08:57:46;;;;;;;6.63;2.17;;;6.30;99.90;;;;;;5020561;28;20205;-63
2023/04/26 09:00:14;;;;;;;6.43;2.10;;;6.30;99.90;;;;;;5007489;28;20597;-63
2023/04/26 09:02:42;;;;;;;5.00;2.23;;;6.30;99.90;;;;;;5015732;28;20211;-63
2023/04/26 09:05:10;;;;;;;5.67;2.60;;;6.40;99.90;;;;;;5008960;28;20259;-63
2023/04/26 09:07:42;;;;;;;4.27;2.10;;;6.70;99.90;;;;;;4993591;28;20707;-63
2023/04/26 09:10:10;;;;;;;4.50;1.83;;;6.60;99.90;;;;;;4999645;28;20721;-64
2023/04/26 09:12:36;;;;;;;8.50;2.50;;;6.80;99.90;;;;;;5014400;28;20308;-64
2023/04/26 09:15:06;;;;;;;3.40;1.90;;;6.90;99.90;;;;;;5002053;28;20205;-63
2023/04/26 09:17:35;;;;;;;3.67;2.23;;;7.00;99.90;;;;;;5011003;28;20224;-63
2023/04/26 09:20:17;;;;;;;4.30;2.10;;;7.10;99.90;;;;;;5004065;28;20212;-63
2023/04/26 09:22:45;;;;;;;5.83;2.40;;;7.20;99.90;;;;;;4999312;28;20982;-63
2023/04/26 09:25:13;;;;;;;7.20;2.50;;;7.30;99.90;;;;;;5019953;28;20288;-63
2023/04/26 09:27:42;;;;;;;9.50;2.30;;;7.40;99.90;;;;;;5021969;28;20412;-63
2023/04/26 09:30:14;;;;;;;7.83;2.37;;;7.50;99.90;;;;;;4994410;28;20946;-64
2023/04/26 09:32:55;;;;;;;7.70;2.80;;;7.70;99.90;;;;;;5009052;28;20205;-63
2023/04/26 09:35:28;;;;;;;5.20;2.07;;;7.80;99.90;;;;;;5008066;28;20206;-63
2023/04/26 09:37:58;;;;;;;5.97;2.43;;;7.80;99.90;;;;;;4999945;28;20866;-63
2023/04/26 09:40:26;;;;;;;2.43;1.90;;;7.70;99.90;;;;;;5012384;28;20614;-64
2023/04/26 09:43:01;;;;;;;6.23;2.00;;;7.80;99.90;;;;;;5016896;28;20197;-63
2023/04/26 09:45:29;;;;;;;4.33;2.20;;;8.00;99.90;;;;;;4991138;28;20221;-63
2023/04/26 09:48:12;;;;;;;7.03;1.97;;;8.10;99.90;;;;;;5008069;28;20204;-63
2023/04/26 09:50:39;;;;;;;4.20;1.80;;;8.20;99.90;;;;;;5001800;28;20371;-63
2023/04/26 09:53:07;;;;;;;3.87;2.00;;;8.30;99.90;;;;;;5018547;28;20214;-63
2023/04/26 09:55:34;;;;;;;4.33;2.03;;;8.20;99.90;;;;;;4999957;28;20209;-63
2023/04/26 09:58:08;;;;;;;9.00;2.03;;;8.20;99.90;;;;;;5024115;28;20689;-63
2023/04/26 10:00:39;;;;;;;6.60;2.60;;;8.10;99.90;;;;;;4992913;28;26983;-64
2023/04/26 10:03:09;;;;;;;7.10;2.00;;;8.00;99.90;;;;;;5015475;28;20221;-64
2023/04/26 10:05:37;;;;;;;7.80;2.57;;;8.00;99.90;;;;;;5010800;28;20307;-63
2023/04/26 10:08:07;;;;;;;7.80;1.90;;;7.90;99.90;;;;;;5004951;28;20202;-63
2023/04/26 10:10:35;;;;;;;3.30;1.27;;;7.80;99.90;;;;;;4991390;28;20225;-63
2023/04/26 10:13:02;;;;;;;4.03;1.30;;;7.20;99.90;;;;;;5022922;28;20206;-63
2023/04/26 10:15:29;;;;;;;3.57;1.40;;;6.70;99.90;;;;;;5025854;28;20327;-63
2023/04/26 10:17:56;;;;;;;2.33;1.03;;;6.40;99.90;;;;;;4999361;28;20209;-63
2023/04/26 10:20:27;;;;;;;2.13;1.27;;;6.30;99.90;;;;;;5012694;28;20235;-63
2023/04/26 10:23:00;;;;;;;2.37;1.30;;;6.40;99.90;;;;;;5006820;28;20414;-63
2023/04/26 10:25:37;;;;;;;1.20;1.03;;;6.50;99.90;;;;;;5010481;28;20203;-64
2023/04/26 10:28:04;;;;;;;3.37;1.47;;;6.80;99.90;;;;;;5022910;28;20631;-63
2023/04/26 10:30:31;;;;;;;3.23;1.90;;;6.90;99.90;;;;;;5022510;28;20235;-63
2023/04/26 10:33:13;;;;;;;3.37;1.40;;;7.00;99.90;;;;;;4998151;28;20780;-64
2023/04/26 10:36:00;;;;;;;8.67;1.77;;;7.20;99.90;;;;;;5009604;28;20422;-64
2023/04/26 10:38:27;;;;;;;3.27;1.23;;;7.40;99.90;;;;;;5012152;28;20201;-64
2023/04/26 10:40:56;;;;;;;7.30;1.70;;;7.80;99.90;;;;;;5024525;28;20741;-63
2023/04/26 10:43:30;;;;;;;4.77;1.90;;;7.90;99.90;;;;;;5000955;28;20208;-64
2023/04/26 10:45:57;;;;;;;1.80;1.40;;;7.80;99.90;;;;;;5027171;28;20197;-63
2023/04/26 10:48:30;;;;;;;3.77;1.87;;;7.80;99.90;;;;;;5010689;28;20553;-64
2023/04/26 10:51:11;;;;;;;8.60;1.87;;;7.90;99.90;;;;;;5020288;28;20278;-63
2023/04/26 10:53:58;;;;;;;4.57;1.83;;;7.70;99.90;;;;;;5007254;28;20527;-63
2023/04/26 10:56:54;;;;;;;5.07;1.83;;;7.70;99.90;;;;;;5026238;28;20598;-63
2023/04/26 10:59:22;;;;;;;2.43;1.40;;;7.70;99.90;;;;;;4994673;28;20248;-64
2023/04/26 11:01:48;;;;;;;5.20;2.20;;;7.70;99.90;;;;;;5020697;28;20464;-64
2023/04/26 11:04:16;;;;;;;4.70;1.77;;;7.70;99.90;;;;;;4988924;28;20471;-64
2023/04/26 11:06:50;;;;;;;7.13;2.00;;;7.90;99.90;;;;;;4994150;28;20306;-64
2023/04/26 11:09:35;;;;;;;4.77;1.77;;;8.00;99.90;;;;;;5006328;28;20801;-64
2023/04/26 11:12:04;;;;;;;8.10;2.37;;;8.20;99.90;;;;;;4982769;28;20227;-64
2023/04/26 11:14:30;;;;;;;5.50;1.67;;;8.40;99.90;;;;;;4989424;28;20635;-64
2023/04/26 11:16:57;;;;;;;5.47;1.80;;;8.50;99.90;;;;;;5012709;28;20201;-64
2023/04/26 11:19:24;;;;;;;6.50;1.80;;;8.50;99.90;;;;;;5015666;28;20512;-64
2023/04/26 11:21:51;;;;;;;2.93;1.30;;;8.50;99.90;;;;;;4984740;28;20202;-64
2023/04/26 11:24:24;;;;;;;1.93;1.17;;;8.30;99.90;;;;;;4995861;28;20820;-63
2023/04/26 11:26:52;;;;;;;1.20;0.80;;;8.00;99.90;;;;;;5009628;28;20610;-63
2023/04/26 11:29:20;;;;;;;3.27;1.20;;;7.80;99.90;;;;;;4993086;28;20433;-63
2023/04/26 11:31:52;;;;;;;5.13;1.20;;;7.80;99.90;;;;;;5018936;28;20710;-63
2023/04/26 11:34:21;;;;;;;2.83;1.07;;;7.90;99.90;;;;;;5015511;28;20194;-64
2023/04/26 11:36:48;;;;;;;4.77;1.47;;;7.90;99.90;;;;;;4994445;28;20209;-63
2023/04/26 11:39:15;;;;;;;3.97;1.00;;;7.90;99.90;;;;;;5002365;28;20634;-63
2023/04/26 11:41:42;;;;;;;3.83;1.20;;;8.00;99.90;;;;;;5024777;28;20193;-63
2023/04/26 11:44:11;;;;;;;2.60;1.27;;;8.10;99.90;;;;;;4981547;28;20225;-63
2023/04/26 11:46:39;;;;;;;10.07;1.33;;;8.10;99.90;;;;;;5023374;28;20287;-63
2023/04/26 11:49:07;;;;;;;3.10;1.00;;;8.10;99.90;;;;;;5018940;28;20201;-63
2023/04/26 11:51:34;;;;;;;1.90;1.10;;;8.20;99.90;;;;;;4996430;28;20240;-63
2023/04/26 11:54:02;;;;;;;1.30;0.70;;;8.40;99.90;;;;;;5009346;28;20714;-64
2023/04/26 11:56:29;;;;;;;4.30;1.17;;;8.30;99.90;;;;;;4964175;28;20228;-64
2023/04/26 11:58:57;;;;;;;2.07;1.10;;;8.40;99.90;;;;;;4997211;28;20205;-63
2023/04/26 12:01:24;;;;;;;5.77;1.10;;;8.50;99.90;;;;;;4997648;28;20225;-63
2023/04/26 12:03:54;;;;;;;4.50;1.20;;;8.60;99.90;;;;;;5018246;28;20217;-63
2023/04/26 12:06:29;;;;;;;3.43;1.00;;;8.70;99.90;;;;;;4995136;28;20221;-63
2023/04/26 12:08:56;;;;;;;7.33;1.30;;;8.80;99.90;;;;;;5019405;28;20201;-63
2023/04/26 12:11:23;;;;;;;4.97;1.17;;;8.80;99.90;;;;;;5006506;28;20225;-63
2023/04/26 12:13:50;;;;;;;2.83;1.13;;;8.90;99.90;;;;;;5012785;28;20418;-63
2023/04/26 12:16:17;;;;;;;2.50;1.13;;;8.90;99.90;;;;;;4999281;28;20201;-63
2023/04/26 12:18:51;;;;;;;5.10;0.90;;;8.70;99.90;;;;;;5018647;28;20758;-63
2023/04/26 12:21:19;;;;;;;1.90;0.90;;;8.40;99.90;;;;;;4997248;28;20205;-63
2023/04/26 12:23:47;;;;;;;4.13;1.73;;;8.30;99.90;;;;;;5027303;28;20463;-63
2023/04/26 12:26:15;;;;;;;2.73;0.97;;;8.20;99.90;;;;;;5014266;28;20307;-63
2023/04/26 12:28:42;;;;;;;6.97;1.20;;;8.10;99.90;;;;;;5012353;28;20275;-64
2023/04/26 12:31:09;;;;;;;2.20;1.10;;;8.10;99.90;;;;;;4998598;28;20733;-63
2023/04/26 12:33:36;;;;;;;5.20;1.00;;;8.00;99.90;;;;;;5027261;28;20212;-63
2023/04/26 12:36:10;;;;;;;4.53;1.33;;;7.90;99.90;;;;;;4996283;28;20204;-63
2023/04/26 12:38:39;;;;;;;5.93;1.40;;;7.80;99.90;;;;;;5015547;28;20557;-63
2023/04/26 12:41:06;;;;;;;4.90;1.40;;;7.90;99.90;;;;;;5006995;28;20680;-64
2023/04/26 12:43:33;;;;;;;2.23;1.30;;;7.90;99.90;;;;;;5014756;28;20221;-63
2023/04/26 12:46:00;;;;;;;2.53;1.03;;;8.00;99.90;;;;;;4986914;28;20820;-63
2023/04/26 12:48:27;;;;;;;3.10;1.20;;;8.10;99.90;;;;;;5023066;28;20842;-63
2023/04/26 12:50:54;;;;;;;4.20;1.20;;;8.20;99.90;;;;;;5022392;28;20417;-63
2023/04/26 12:53:21;;;;;;;10.23;1.47;;;8.30;99.90;;;;;;4994188;28;20209;-64
2023/04/26 12:55:49;;;;;;;1.40;1.10;;;8.40;99.90;;;;;;5011182;28;20197;-63
2023/04/26 12:58:16;;;;;;;3.70;1.20;;;8.60;99.90;;;;;;5008301;28;20197;-63
2023/04/26 13:00:43;;;;;;;4.70;1.50;;;8.70;99.90;;;;;;4982635;28;20217;-64